createdAt,value
2023-01-13T00:04:29.122Z,70.13
2023-01-13T00:09:32.972Z,70.41
2023-01-13T00:14:39.164Z,70.06
2023-01-13T00:19:42.880Z,70.32
2023-01-13T00:24:47.598Z,70.46
2023-01-13T00:29:52.939Z,70.96
2023-01-13T00:34:56.900Z,70.95
2023-01-13T00:40:01.312Z,70.48
2023-01-13T00:45:07.023Z,70.87
2023-01-13T00:50:11.923Z,70.69
2023-01-13T00:55:16.685Z,71.21
2023-01-13T01:00:22.791Z,70.89
2023-01-13T01:05:26.810Z,70.85
2023-01-13T01:10:30.571Z,70.94
2023-01-13T01:15:36.006Z,70.94
2023-01-13T01:20:41.632Z,71.32
2023-01-13T01:25:47.021Z,71.21
2023-01-13T01:30:51.888Z,70.83
2023-01-13T01:35:56.204Z,71.38
2023-01-13T01:41:00.682Z,71.73
2023-01-13T01:46:07.477Z,70.95
2023-01-13T01:51:14.806Z,71.25
2023-01-13T01:56:24.012Z,71.60
2023-01-13T02:01:28.588Z,72.16
2023-01-13T02:06:33.373Z,71.60
2023-01-13T02:11:58.229Z,71.30
2023-01-13T02:17:11.301Z,71.78
2023-01-13T02:22:40.320Z,72.07
2023-01-13T02:28:06.955Z,71.52
2023-01-13T02:33:19.109Z,71.63
2023-01-13T02:38:29.767Z,72.00
2023-01-13T02:43:59.247Z,72.29
2023-01-13T02:49:09.640Z,72.10
2023-01-13T02:54:24.004Z,71.89
2023-01-13T02:59:31.453Z,72.85
2023-01-13T03:04:56.516Z,72.29
2023-01-13T03:10:16.028Z,72.33
2023-01-13T03:15:43.546Z,72.44
2023-01-13T03:21:16.487Z,72.15
2023-01-13T03:26:48.201Z,72.62
2023-01-13T03:32:13.159Z,72.01
2023-01-13T03:37:23.002Z,72.95
2023-01-13T03:42:32.985Z,72.28
2023-01-13T03:47:56.759Z,72.76
2023-01-13T03:53:05.666Z,72.95
2023-01-13T03:58:21.331Z,72.81
2023-01-13T04:03:46.323Z,73.09
2023-01-13T04:09:04.964Z,73.49
2023-01-13T04:14:11.527Z,72.88
2023-01-13T04:19:16.279Z,73.16
2023-01-13T04:24:21.671Z,72.99
2023-01-13T04:29:26.815Z,73.17
2023-01-13T04:34:31.956Z,72.84
2023-01-13T04:39:38.968Z,73.43
2023-01-13T04:44:42.694Z,72.95
2023-01-13T04:49:48.264Z,72.81
2023-01-13T04:54:52.041Z,73.12
2023-01-13T04:59:57.088Z,73.40
2023-01-13T05:05:02.085Z,72.91
2023-01-13T05:10:07.116Z,73.20
2023-01-13T05:15:34.997Z,73.08
2023-01-13T05:20:38.877Z,73.34
2023-01-13T05:25:44.804Z,73.02
2023-01-13T05:30:50.977Z,72.84
2023-01-13T05:35:55.488Z,73.25
2023-01-13T05:41:20.969Z,73.02
2023-01-13T05:46:25.160Z,72.88
2023-01-13T05:51:31.908Z,73.06
2023-01-13T05:56:36.772Z,73.24
2023-01-13T06:01:41.206Z,73.07
2023-01-13T06:06:47.094Z,73.56
2023-01-13T06:11:51.884Z,73.54
2023-01-13T06:16:57.017Z,73.27
2023-01-13T06:22:10.944Z,73.48
2023-01-13T06:27:15.391Z,73.21
2023-01-13T06:32:26.714Z,72.69
2023-01-13T06:37:31.826Z,73.14
2023-01-13T06:42:56.862Z,73.33
2023-01-13T06:48:02.301Z,72.90
2023-01-13T06:53:07.529Z,73.01
2023-01-13T06:58:11.314Z,72.78
2023-01-13T07:03:17.796Z,73.05
2023-01-13T07:08:21.773Z,72.48
2023-01-13T07:13:44.105Z,72.81
2023-01-13T07:18:48.074Z,72.34
2023-01-13T07:23:52.601Z,72.81
2023-01-13T07:29:01.836Z,72.44
2023-01-13T07:34:07.222Z,72.93
2023-01-13T07:39:10.952Z,72.98
2023-01-13T07:44:14.928Z,72.28
2023-01-13T07:49:22.183Z,72.56
2023-01-13T07:54:39.594Z,72.72
2023-01-13T07:59:46.932Z,72.49
2023-01-13T08:04:51.554Z,72.79
2023-01-13T08:09:57.039Z,72.28
2023-01-13T08:15:00.888Z,72.26
2023-01-13T08:20:07.241Z,72.77
2023-01-13T08:25:11.283Z,72.09
2023-01-13T08:30:16.763Z,72.15
2023-01-13T08:35:23.273Z,72.29
2023-01-13T08:40:27.282Z,72.36
2023-01-13T08:45:31.235Z,72.47
2023-01-13T08:50:36.264Z,72.38
2023-01-13T08:55:42.113Z,72.52
2023-01-13T09:00:45.993Z,72.09
2023-01-13T09:05:50.960Z,72.44
2023-01-13T09:10:54.796Z,72.33
2023-01-13T09:15:58.875Z,72.72
2023-01-13T09:21:04.031Z,72.88
2023-01-13T09:26:12.116Z,72.62
2023-01-13T09:31:19.788Z,72.44
2023-01-13T09:36:23.683Z,72.82
2023-01-13T09:41:51.141Z,72.68
2023-01-13T09:47:01.600Z,72.91
2023-01-13T09:52:11.574Z,72.32
2023-01-13T09:57:21.010Z,72.94
2023-01-13T10:02:24.859Z,73.09
2023-01-13T10:07:33.900Z,73.07
2023-01-13T10:12:58.133Z,72.84
2023-01-13T10:18:16.907Z,73.40
2023-01-13T10:23:48.339Z,72.66
2023-01-13T10:28:55.757Z,72.96
2023-01-13T10:34:05.073Z,72.65
2023-01-13T10:39:17.231Z,72.85
2023-01-13T10:44:23.210Z,73.04
2023-01-13T10:49:34.517Z,73.04
2023-01-13T10:54:53.325Z,73.33
2023-01-13T11:00:06.413Z,73.03
2023-01-13T11:05:24.827Z,73.38
2023-01-13T11:10:33.287Z,73.02
2023-01-13T11:15:54.876Z,73.50
2023-01-13T11:21:01.302Z,73.04
2023-01-13T11:26:39.876Z,73.12
2023-01-13T11:31:50.942Z,72.91
2023-01-13T11:36:59.249Z,73.25
2023-01-13T11:42:24.060Z,73.04
2023-01-13T11:47:29.599Z,73.63
2023-01-13T11:53:13.964Z,73.14
2023-01-13T11:58:50.956Z,73.08
2023-01-13T12:04:22.039Z,73.63
2023-01-13T12:09:41.109Z,73.12
2023-01-13T12:14:57.175Z,73.73
2023-01-13T12:20:23.193Z,73.37
2023-01-13T12:25:39.163Z,73.55
2023-01-13T12:31:02.793Z,73.76
2023-01-13T12:36:28.174Z,73.79
2023-01-13T12:42:20.070Z,73.51
2023-01-13T12:47:40.910Z,73.93
2023-01-13T12:52:46.427Z,73.55
2023-01-13T12:58:14.767Z,73.58
2023-01-13T13:03:35.691Z,73.81
2023-01-13T13:08:46.103Z,73.77
2023-01-13T13:13:51.634Z,73.62
2023-01-13T13:19:21.240Z,73.47
2023-01-13T13:24:30.091Z,73.99
2023-01-13T13:29:44.051Z,74.02
2023-01-13T13:35:31.373Z,73.75
2023-01-13T13:41:04.102Z,73.48
2023-01-13T13:46:48.839Z,73.64
2023-01-13T13:52:01.923Z,74.00
2023-01-13T13:57:17.041Z,73.53
2023-01-13T14:02:31.727Z,73.87
2023-01-13T14:07:48.831Z,73.73
2023-01-13T14:12:53.803Z,73.30
2023-01-13T14:18:02.025Z,74.17
2023-01-13T14:23:06.594Z,74.05
2023-01-13T14:28:31.186Z,73.97
2023-01-13T14:33:48.110Z,73.62
2023-01-13T14:39:15.027Z,73.40
2023-01-13T14:44:32.500Z,73.40
2023-01-13T14:50:09.438Z,73.69
2023-01-13T14:55:31.510Z,73.41
2023-01-13T15:00:36.407Z,74.11
2023-01-13T15:05:43.479Z,73.81
2023-01-13T15:11:07.628Z,73.86
2023-01-13T15:16:18.537Z,73.58
2023-01-13T15:21:23.815Z,73.65
2023-01-13T15:26:36.426Z,73.70
2023-01-13T15:31:42.056Z,74.23
2023-01-13T15:36:45.865Z,73.97
2023-01-13T15:42:10.820Z,73.86
2023-01-13T15:47:15.494Z,73.88
2023-01-13T15:52:25.931Z,73.63
2023-01-13T15:57:37.956Z,73.90
2023-01-13T16:02:42.708Z,74.06
2023-01-13T16:07:49.696Z,73.86
2023-01-13T16:12:56.642Z,73.44
2023-01-13T16:18:06.698Z,74.07
2023-01-13T16:23:13.856Z,73.55
2023-01-13T16:28:25.877Z,73.69
2023-01-13T16:33:30.900Z,74.28
2023-01-13T16:38:34.756Z,73.74
2023-01-13T16:43:38.855Z,73.90
2023-01-13T16:48:45.797Z,74.07
2023-01-13T16:53:50.822Z,73.70
2023-01-13T16:58:58.604Z,74.08
2023-01-13T17:04:03.336Z,73.72
2023-01-13T17:09:13.462Z,73.86
2023-01-13T17:14:21.801Z,73.77
2023-01-13T17:19:26.353Z,73.50
2023-01-13T17:24:33.120Z,73.39
2023-01-13T17:29:38.851Z,73.81
2023-01-13T17:34:45.269Z,74.11
2023-01-13T17:39:50.149Z,74.13
2023-01-13T17:44:56.293Z,73.42
2023-01-13T17:50:01.991Z,73.63
2023-01-13T17:55:06.537Z,73.91
2023-01-13T18:00:17.894Z,74.06
2023-01-13T18:05:21.737Z,74.22
2023-01-13T18:10:46.668Z,73.52
2023-01-13T18:15:50.793Z,73.67
2023-01-13T18:21:13.981Z,74.31
2023-01-13T18:26:39.677Z,73.77
2023-01-13T18:31:45.509Z,73.51
2023-01-13T18:36:52.475Z,74.05
2023-01-13T18:42:14.402Z,73.75
2023-01-13T18:47:20.686Z,73.70
2023-01-13T18:52:26.808Z,73.77
2023-01-13T18:57:34.009Z,73.78
2023-01-13T19:02:40.307Z,73.56
2023-01-13T19:07:51.167Z,73.74
2023-01-13T19:12:56.811Z,74.04
2023-01-13T19:18:02.046Z,73.55
2023-01-13T19:23:09.126Z,73.96
2023-01-13T19:28:12.903Z,73.84
2023-01-13T19:33:17.096Z,74.07
2023-01-13T19:38:24.485Z,74.19
2023-01-13T19:43:48.802Z,73.47
2023-01-13T19:48:53.599Z,74.01
2023-01-13T19:53:58.511Z,73.36
2023-01-13T19:59:04.342Z,73.79
2023-01-13T20:04:17.282Z,73.61
2023-01-13T20:09:24.043Z,73.83
2023-01-13T20:14:30.080Z,74.20
2023-01-13T20:19:34.003Z,73.66
2023-01-13T20:24:39.403Z,73.54
2023-01-13T20:29:44.860Z,73.81
2023-01-13T20:34:49.706Z,73.58
2023-01-13T20:39:53.475Z,73.95
2023-01-13T20:45:01.249Z,73.58
2023-01-13T20:50:07.303Z,73.75
2023-01-13T20:55:15.113Z,73.93
2023-01-13T21:00:21.781Z,74.00
2023-01-13T21:05:27.413Z,73.89
2023-01-13T21:10:31.436Z,73.88
2023-01-13T21:15:35.899Z,73.85
2023-01-13T21:20:42.244Z,73.56
2023-01-13T21:25:48.991Z,74.12
2023-01-13T21:30:53.624Z,73.43
2023-01-13T21:35:58.396Z,73.72
2023-01-13T21:41:08.104Z,74.03
2023-01-13T21:46:33.576Z,74.14
2023-01-13T21:51:40.062Z,73.34
2023-01-13T21:56:48.210Z,73.92
2023-01-13T22:02:23.339Z,73.62
2023-01-13T22:07:16.049Z,73.62
2023-01-13T22:12:26.037Z,73.79
2023-01-13T22:17:34.227Z,74.06
2023-01-13T22:22:42.383Z,74.09
2023-01-13T22:27:46.306Z,73.93
2023-01-13T22:32:51.229Z,74.21
2023-01-13T22:37:55.025Z,73.72
2023-01-13T22:42:58.833Z,73.73
2023-01-13T22:48:02.502Z,73.67
2023-01-13T22:53:08.120Z,74.29
2023-01-13T22:58:14.861Z,73.60
2023-01-13T23:03:19.023Z,74.32
2023-01-13T23:08:22.859Z,74.02
2023-01-13T23:13:29.900Z,73.94
2023-01-13T23:18:35.665Z,74.32
2023-01-13T23:23:41.617Z,74.00
2023-01-13T23:28:46.659Z,73.76
2023-01-13T23:33:50.519Z,74.40
2023-01-13T23:38:54.846Z,74.22
2023-01-13T23:44:01.332Z,74.27
2023-01-13T23:49:06.023Z,73.98
2023-01-13T23:54:11.178Z,73.92
2023-01-13T23:59:17.780Z,74.26
